Time;durP1;ratioP1;P1;durP2;ratioP2;P2;SDS_P1;SDS_P2;PMS_P1;PMS_P2;Temp;Humidity;BMP_temperature;BMP_pressure;BME280_temperature;BME280_humidity;BME280_pressure;Samples;Min_cycle;Max_cycle;Signal;HPM_P1;HPM_P2
2022/09/05 00:00:02;;;;;;;;;;;;;;;17.72;63.62;101830.25;5006595;28;19956;-58
2022/09/05 00:02:30;;;;;;;;;;;;;;;17.71;63.86;101828.59;5008077;28;19913;-58
2022/09/05 00:05:06;;;;;;;;;;;;;;;17.72;63.92;101824.06;5008226;28;19913;-58
2022/09/05 00:07:50;;;;;;;;;;;;;;;17.71;64.34;101825.91;5006073;28;19917;-58
2022/09/05 00:10:23;;;;;;;;;;;;;;;17.67;63.86;101826.47;5009441;28;19924;-57
2022/09/05 00:12:50;;;;;;;;;;;;;;;17.62;63.63;101824.34;5006935;28;19924;-57
2022/09/05 00:15:18;;;;;;;;;;;;;;;17.54;64.19;101829.84;5005170;28;19913;-58
2022/09/05 00:17:56;;;;;;;;;;;;;;;17.46;64.02;101829.97;5006769;28;20128;-57
2022/09/05 00:20:31;;;;;;;;;;;;;;;17.46;63.70;101822.75;5004869;28;19920;-58
2022/09/05 00:22:56;;;;;;;;;;;;;;;17.48;63.94;101830.63;5001524;28;20353;-58
2022/09/05 00:25:30;;;;;;;;;;;;;;;17.48;63.98;101827.94;5003669;28;20380;-57
2022/09/05 00:28:08;;;;;;;;;;;;;;;17.47;63.75;101819.03;5005439;28;19920;-57
2022/09/05 00:30:43;;;;;;;;;;;;;;;17.48;64.50;101812.66;5004166;28;19920;-57
2022/09/05 00:33:20;;;;;;;;;;;;;;;17.48;64.24;101820.72;5004849;28;19934;-58
2022/09/05 00:36:05;;;;;;;;;;;;;;;17.48;64.47;101826.06;5005629;28;20296;-58
2022/09/05 00:38:30;;;;;;;;;;;;;;;17.47;64.50;101821.72;5008005;28;19914;-58
2022/09/05 00:41:01;;;;;;;;;;;;;;;17.46;64.51;101822.75;5002062;28;20372;-57
2022/09/05 00:43:32;;;;;;;;;;;;;;;17.45;64.72;101821.09;5003174;28;19967;-58
2022/09/05 00:45:57;;;;;;;;;;;;;;;17.39;64.26;101827.25;5005945;28;19920;-56
2022/09/05 00:48:43;;;;;;;;;;;;;;;17.31;64.18;101822.81;5004799;28;19917;-58
2022/09/05 00:51:27;;;;;;;;;;;;;;;17.29;64.45;101818.66;5002592;28;19917;-58
2022/09/05 00:54:01;;;;;;;;;;;;;;;17.22;64.43;101812.38;5004281;28;20298;-57
2022/09/05 00:56:35;;;;;;;;;;;;;;;17.18;64.85;101817.31;5003474;28;20289;-57
2022/09/05 00:59:12;;;;;;;;;;;;;;;17.14;65.07;101807.13;5003681;28;19921;-58
2022/09/05 01:01:42;;;;;;;;;;;;;;;17.13;65.48;101813.53;5002219;28;19959;-57
2022/09/05 01:04:18;;;;;;;;;;;;;;;17.13;65.12;101808.16;5005988;28;19914;-58
2022/09/05 01:06:52;;;;;;;;;;;;;;;17.13;65.31;101813.53;5005199;28;19913;-57
2022/09/05 01:09:32;;;;;;;;;;;;;;;17.11;65.33;101804.84;5004762;28;20004;-57
2022/09/05 01:12:03;;;;;;;;;;;;;;;17.09;65.84;101805.03;5009653;28;20443;-56
2022/09/05 01:14:28;;;;;;;;;;;;;;;17.02;65.93;101812.16;5008791;28;20291;-58
2022/09/05 01:17:03;;;;;;;;;;;;;;;16.93;65.54;101814.13;5009566;28;20291;-58
2022/09/05 01:19:28;;;;;;;;;;;;;;;16.86;65.41;101817.75;5011004;28;19913;-58
2022/09/05 01:22:12;;;;;;;;;;;;;;;16.85;65.54;101808.06;5010194;28;19914;-58
2022/09/05 01:24:51;;;;;;;;;;;;;;;16.84;66.00;101809.06;5006672;28;19917;-58
2022/09/05 01:27:39;;;;;;;;;;;;;;;16.85;66.01;101803.50;5006101;28;20000;-57
2022/09/05 01:30:11;;;;;;;;;;;;;;;16.88;66.32;101802.31;5005623;28;19921;-59
2022/09/05 01:32:48;;;;;;;;;;;;;;;16.88;66.58;101802.31;5010452;28;20343;-57
2022/09/05 01:35:32;;;;;;;;;;;;;;;16.90;66.44;101806.47;5005902;28;19917;-57
2022/09/05 01:38:12;;;;;;;;;;;;;;;16.91;66.38;101813.50;5008412;28;19916;-58
2022/09/05 01:40:52;;;;;;;;;;;;;;;16.89;66.02;101802.13;5006766;28;19967;-57
2022/09/05 01:43:24;;;;;;;;;;;;;;;16.92;65.42;101801.72;5010044;28;19921;-57
2022/09/05 01:45:51;;;;;;;;;;;;;;;16.96;65.94;101803.00;5005986;28;19913;-57
2022/09/05 01:48:23;;;;;;;;;;;;;;;16.99;65.71;101801.81;5007370;28;19913;-57
2022/09/05 01:51:07;;;;;;;;;;;;;;;17.00;66.13;101806.16;5004846;28;20376;-57
2022/09/05 01:53:37;;;;;;;;;;;;;;;17.01;65.64;101802.44;5009625;28;19986;-58
2022/09/05 01:56:09;;;;;;;;;;;;;;;17.03;65.64;101803.91;5005339;28;20471;-58
2022/09/05 01:58:34;;;;;;;;;;;;;;;17.04;65.60;101808.25;5005271;28;19917;-58
2022/09/05 02:00:59;;;;;;;;;;;;;;;17.02;65.64;101802.25;5006308;28;20003;-58
2022/09/05 02:03:25;;;;;;;;;;;;;;;16.98;65.57;101803.66;5006393;28;19948;-58
2022/09/05 02:06:08;;;;;;;;;;;;;;;16.94;65.58;101797.00;5008004;28;19910;-58
2022/09/05 02:08:36;;;;;;;;;;;;;;;16.92;65.73;101807.09;5009368;28;19913;-58
2022/09/05 02:11:06;;;;;;;;;;;;;;;16.89;65.83;101807.47;5004205;28;19952;-58
2022/09/05 02:13:34;;;;;;;;;;;;;;;16.84;65.91;101799.16;5006702;28;20000;-58
2022/09/05 02:16:08;;;;;;;;;;;;;;;16.81;65.90;101801.41;5007558;28;19928;-58
2022/09/05 02:18:44;;;;;;;;;;;;;;;16.82;66.14;101808.44;5008092;28;20329;-58
2022/09/05 02:21:14;;;;;;;;;;;;;;;16.83;66.00;101808.25;5008169;28;20020;-57
2022/09/05 02:23:42;;;;;;;;;;;;;;;16.83;65.78;101802.03;5008585;28;20292;-58
2022/09/05 02:26:07;;;;;;;;;;;;;;;16.83;65.79;101802.03;5006319;28;20004;-58
2022/09/05 02:28:43;;;;;;;;;;;;;;;16.82;66.10;101798.53;5009967;28;20008;-57
2022/09/05 02:31:14;;;;;;;;;;;;;;;16.79;66.29;101809.63;5005898;28;20511;-58
2022/09/05 02:33:46;;;;;;;;;;;;;;;16.77;66.18;101814.38;5006727;28;22516;-58
2022/09/05 02:36:16;;;;;;;;;;;;;;;16.76;65.90;101820.72;5009626;28;19996;-56
2022/09/05 02:38:42;;;;;;;;;;;;;;;16.69;66.12;101817.13;5009380;28;19914;-58
2022/09/05 02:41:31;;;;;;;;;;;;;;;16.61;65.87;101817.19;5003796;28;19983;-58
2022/09/05 02:43:59;;;;;;;;;;;;;;;16.54;65.88;101819.81;5003589;28;19917;-57
2022/09/05 02:46:35;;;;;;;;;;;;;;;16.50;65.72;101815.84;5005371;28;19999;-58
2022/09/05 02:49:09;;;;;;;;;;;;;;;16.52;65.81;101813.78;5006182;28;19917;-56
2022/09/05 02:51:38;;;;;;;;;;;;;;;16.54;65.74;101813.59;5004835;28;19914;-57
2022/09/05 02:54:32;;;;;;;;;;;;;;;16.57;65.78;101818.59;5007304;28;19926;-58
2022/09/05 02:56:57;;;;;;;;;;;;;;;16.54;66.18;101818.97;5000207;28;19913;-58
2022/09/05 02:59:44;;;;;;;;;;;;;;;16.48;66.11;101817.00;5006644;28;19913;-55
2022/09/05 03:02:15;;;;;;;;;;;;;;;16.43;66.08;101815.72;5004314;28;19921;-58
2022/09/05 03:04:47;;;;;;;;;;;;;;;16.41;65.94;101820.44;5003954;28;20008;-59
2022/09/05 03:07:36;;;;;;;;;;;;;;;16.36;66.25;101812.13;5002703;28;20257;-57
2022/09/05 03:10:15;;;;;;;;;;;;;;;16.35;66.12;101821.19;5005812;28;19923;-58
2022/09/05 03:12:43;;;;;;;;;;;;;;;16.37;65.98;101812.94;5004774;28;19942;-58
2022/09/05 03:15:17;;;;;;;;;;;;;;;16.40;66.01;101810.72;5004222;28;19922;-58
2022/09/05 03:17:48;;;;;;;;;;;;;;;16.45;65.43;101814.69;5004838;28;19913;-57
2022/09/05 03:20:32;;;;;;;;;;;;;;;16.46;65.63;101813.69;5006922;28;19948;-57
2022/09/05 03:23:21;;;;;;;;;;;;;;;16.43;65.77;101818.41;5007991;28;19917;-57
2022/09/05 03:25:47;;;;;;;;;;;;;;;16.41;65.98;101808.88;5006311;28;19914;-58
2022/09/05 03:28:49;;;;;;;;;;;;;;;16.39;66.24;101814.44;5007423;28;19920;-58
2022/09/05 03:31:27;;;;;;;;;;;;;;;16.42;66.46;101810.53;5000007;28;20593;-57
2022/09/05 03:34:05;;;;;;;;;;;;;;;16.42;66.09;101821.25;5005921;28;19921;-58
2022/09/05 03:36:48;;;;;;;;;;;;;;;16.41;65.82;101819.59;5003560;28;19999;-58
2022/09/05 03:39:26;;;;;;;;;;;;;;;16.42;65.87;101821.25;5003015;28;19913;-57
2022/09/05 03:41:57;;;;;;;;;;;;;;;16.44;65.72;101819.22;5006352;28;19992;-58
2022/09/05 03:44:23;;;;;;;;;;;;;;;16.47;65.43;101818.84;5002336;28;19921;-57
2022/09/05 03:47:06;;;;;;;;;;;;;;;16.49;65.48;101818.69;5005333;28;19968;-57
2022/09/05 03:49:57;;;;;;;;;;;;;;;16.49;65.19;101807.97;5004132;28;19913;-58
2022/09/05 03:52:37;;;;;;;;;;;;;;;16.49;65.12;101810.66;5002685;28;19965;-56
2022/09/05 03:55:11;;;;;;;;;;;;;;;16.47;65.50;101807.31;5002088;28;19960;-56
2022/09/05 03:57:54;;;;;;;;;;;;;;;16.45;65.52;101806.66;5004045;28;20000;-57
2022/09/05 04:00:23;;;;;;;;;;;;;;;16.44;65.33;101805.81;5005235;28;19929;-57
2022/09/05 04:03:07;;;;;;;;;;;;;;;16.43;65.69;101810.34;5002940;28;19914;-57
2022/09/05 04:05:36;;;;;;;;;;;;;;;16.39;66.44;101817.09;5005349;28;19913;-59
2022/09/05 04:08:19;;;;;;;;;;;;;;;16.34;65.64;101808.78;5006250;28;19967;-56
2022/09/05 04:10:54;;;;;;;;;;;;;;;16.39;65.74;101816.28;5000494;28;19921;-57
2022/09/05 04:13:23;;;;;;;;;;;;;;;16.43;65.80;101814.88;5005934;28;19932;-57
2022/09/05 04:16:10;;;;;;;;;;;;;;;16.46;66.02;101817.19;5004602;28;20024;-57
2022/09/05 04:18:37;;;;;;;;;;;;;;;16.45;66.41;101814.69;5003954;28;19920;-57
2022/09/05 04:21:10;;;;;;;;;;;;;;;16.39;66.26;101821.63;5004230;28;19917;-58
2022/09/05 04:23:36;;;;;;;;;;;;;;;16.35;66.21;101815.81;5005631;28;19920;-58
2022/09/05 04:26:19;;;;;;;;;;;;;;;16.38;66.40;101815.44;5003997;28;19914;-58
2022/09/05 04:28:51;;;;;;;;;;;;;;;16.38;66.81;101826.16;5003769;28;20004;-57
2022/09/05 04:31:16;;;;;;;;;;;;;;;16.36;66.77;101819.31;5006441;28;19932;-58
2022/09/05 04:33:46;;;;;;;;;;;;;;;16.36;66.81;101817.47;5003828;28;19917;-58
2022/09/05 04:36:38;;;;;;;;;;;;;;;16.33;66.38;101822.38;5005110;28;19996;-58
2022/09/05 04:39:26;;;;;;;;;;;;;;;16.32;66.51;101820.72;5004171;28;20593;-58
2022/09/05 04:41:55;;;;;;;;;;;;;;;16.30;66.26;101818.22;4994058;28;19920;-57
2022/09/05 04:44:26;;;;;;;;;;;;;;;16.28;66.50;101822.09;5003953;28;19976;-57
2022/09/05 04:46:54;;;;;;;;;;;;;;;16.24;66.36;101826.19;5007981;28;20436;-56
2022/09/05 04:49:22;;;;;;;;;;;;;;;16.23;66.34;101835.22;5011364;28;19972;-57
2022/09/05 04:52:07;;;;;;;;;;;;;;;16.23;66.10;101825.34;5008739;28;19921;-57
2022/09/05 04:54:34;;;;;;;;;;;;;;;16.26;66.59;101835.69;5003769;28;19917;-58
2022/09/05 04:57:10;;;;;;;;;;;;;;;16.28;66.42;101822.94;5001106;28;19928;-57
2022/09/05 04:59:58;;;;;;;;;;;;;;;16.31;66.51;101830.59;5005751;28;20506;-57
2022/09/05 05:02:34;;;;;;;;;;;;;;;16.31;66.67;101830.59;5009478;28;19920;-58
2022/09/05 05:05:01;;;;;;;;;;;;;;;16.32;66.74;101832.28;5005946;28;19917;-57
2022/09/05 05:07:45;;;;;;;;;;;;;;;16.31;66.46;101833.28;5006708;28;20380;-58
2022/09/05 05:10:16;;;;;;;;;;;;;;;16.28;66.49;101836.34;5004592;28;19922;-57
2022/09/05 05:12:47;;;;;;;;;;;;;;;16.25;66.51;101834.03;5004343;28;19955;-58
2022/09/05 05:15:17;;;;;;;;;;;;;;;16.26;66.49;101833.00;5009086;28;19909;-57
2022/09/05 05:17:51;;;;;;;;;;;;;;;16.25;66.25;101830.53;5007845;28;19975;-57
2022/09/05 05:20:25;;;;;;;;;;;;;;;16.24;66.42;101834.22;4995095;28;19929;-56
2022/09/05 05:22:53;;;;;;;;;;;;;;;16.23;66.51;101838.75;5002460;28;19921;-57
2022/09/05 05:25:19;;;;;;;;;;;;;;;16.24;67.21;101851.13;4999655;28;19913;-58
2022/09/05 05:28:06;;;;;;;;;;;;;;;16.01;68.41;101858.38;5001995;28;19964;-58
2022/09/05 05:30:32;;;;;;;;;;;;;;;15.79;68.47;101846.69;4998282;28;19920;-58
2022/09/05 05:33:03;;;;;;;;;;;;;;;15.81;68.67;101844.66;5001785;28;19913;-58
2022/09/05 05:35:32;;;;;;;;;;;;;;;15.89;68.74;101852.59;5004331;28;20406;-57
2022/09/05 05:38:17;;;;;;;;;;;;;;;15.98;68.79;101851.53;5002601;28;19949;-56
2022/09/05 05:40:46;;;;;;;;;;;;;;;16.07;68.99;101841.56;5005243;28;20322;-57
2022/09/05 05:43:12;;;;;;;;;;;;;;;16.12;68.61;101841.84;5002784;28;19917;-57
2022/09/05 05:45:37;;;;;;;;;;;;;;;16.19;69.11;101847.31;5002802;28;19992;-56
2022/09/05 05:48:04;;;;;;;;;;;;;;;16.27;68.44;101847.25;5007183;28;19933;-58
2022/09/05 05:50:48;;;;;;;;;;;;;;;16.35;68.58;101847.16;5003152;28;19920;-57
2022/09/05 05:53:16;;;;;;;;;;;;;;;16.46;68.45;101849.38;5002076;28;19964;-58
2022/09/05 05:55:57;;;;;;;;;;;;;;;16.55;68.30;101856.31;5002418;28;20605;-58
2022/09/05 05:58:41;;;;;;;;;;;;;;;16.65;68.49;101858.72;5007527;28;19924;-58
2022/09/05 06:01:24;;;;;;;;;;;;;;;16.77;68.69;101864.47;5005095;28;19917;-56
2022/09/05 06:03:49;;;;;;;;;;;;;;;16.88;68.29;101864.84;5005544;28;19917;-55
2022/09/05 06:06:24;;;;;;;;;;;;;;;16.99;68.33;101871.56;5008049;28;19913;-57
2022/09/05 06:09:07;;;;;;;;;;;;;;;17.10;68.17;101870.28;5005556;28;19913;-56
2022/09/05 06:11:51;;;;;;;;;;;;;;;17.21;67.83;101869.78;5004908;28;19940;-56
2022/09/05 06:14:37;;;;;;;;;;;;;;;17.33;67.94;101865.56;5011531;28;20017;-57
2022/09/05 06:17:21;;;;;;;;;;;;;;;17.45;68.10;101874.81;5000053;28;20404;-57
2022/09/05 06:19:46;;;;;;;;;;;;;;;17.60;68.09;101875.56;5001867;28;20387;-57
2022/09/05 06:22:31;;;;;;;;;;;;;;;17.72;68.01;101877.78;5006775;28;19917;-58
2022/09/05 06:25:31;;;;;;;;;;;;;;;17.81;67.32;101882.84;5000093;28;19909;-58
2022/09/05 06:28:15;;;;;;;;;;;;;;;17.94;67.51;101882.97;4950213;28;19911;-57
2022/09/05 06:31:06;;;;;;;;;;;;;;;18.10;67.70;101886.38;5004512;28;20530;-57
2022/09/05 06:33:31;;;;;;;;;;;;;;;18.20;67.05;101885.00;5006681;28;20496;-57
2022/09/05 06:35:59;;;;;;;;;;;;;;;18.31;66.87;101882.84;5007355;28;19959;-58
2022/09/05 06:38:27;;;;;;;;;;;;;;;18.41;66.61;101888.69;5004042;28;20392;-57
2022/09/05 06:40:52;;;;;;;;;;;;;;;18.52;66.12;101880.91;5010338;28;20001;-58
2022/09/05 06:43:34;;;;;;;;;;;;;;;18.64;66.53;101886.59;5009176;28;20000;-57
2022/09/05 06:46:02;;;;;;;;;;;;;;;18.76;65.96;101892.25;5011080;28;20378;-58
2022/09/05 06:48:29;;;;;;;;;;;;;;;18.84;65.34;101884.03;5006947;28;19923;-57
2022/09/05 06:50:57;;;;;;;;;;;;;;;18.94;65.45;101878.25;5007459;28;19928;-57
2022/09/05 06:53:38;;;;;;;;;;;;;;;19.07;65.72;101879.13;5002540;28;19920;-57
2022/09/05 06:56:09;;;;;;;;;;;;;;;19.17;65.25;101876.09;5004885;28;19909;-58
2022/09/05 06:58:40;;;;;;;;;;;;;;;19.26;65.01;101871.34;5005175;28;19917;-57
2022/09/05 07:01:07;;;;;;;;;;;;;;;19.35;65.06;101875.50;5006239;28;19913;-57
2022/09/05 07:03:51;;;;;;;;;;;;;;;19.40;64.75;101868.50;5007692;28;19976;-57
2022/09/05 07:06:33;;;;;;;;;;;;;;;19.48;64.47;101875.53;5009277;28;19979;-57
2022/09/05 07:09:01;;;;;;;;;;;;;;;19.56;64.15;101882.63;5006437;28;19974;-57
2022/09/05 07:11:35;;;;;;;;;;;;;;;19.61;63.98;101877.47;5012324;28;19913;-57
2022/09/05 07:14:00;;;;;;;;;;;;;;;19.69;63.74;101885.38;5005830;28;19925;-57
2022/09/05 07:16:35;;;;;;;;;;;;;;;19.76;63.54;101881.63;5007161;28;20550;-55
2022/09/05 07:19:15;;;;;;;;;;;;;;;19.85;63.23;101887.66;5010526;28;19917;-57
2022/09/05 07:21:59;;;;;;;;;;;;;;;19.93;63.14;101886.63;5011491;28;19914;-57
2022/09/05 07:24:26;;;;;;;;;;;;;;;20.03;63.19;101890.56;5001790;28;19920;-57
2022/09/05 07:26:53;;;;;;;;;;;;;;;20.13;62.85;101892.00;5011081;28;20560;-57
2022/09/05 07:29:20;;;;;;;;;;;;;;;20.19;62.79;101886.63;5006917;28;19917;-56
2022/09/05 07:31:48;;;;;;;;;;;;;;;20.30;62.71;101887.88;5011230;28;20089;-57
2022/09/05 07:34:16;;;;;;;;;;;;;;;20.37;62.11;101885.97;5010078;28;19924;-56
2022/09/05 07:36:44;;;;;;;;;;;;;;;20.45;62.52;101890.34;5007012;28;19999;-58
2022/09/05 07:39:13;;;;;;;;;;;;;;;20.54;62.18;101892.66;5005743;28;19996;-54
2022/09/05 07:41:41;;;;;;;;;;;;;;;20.62;62.15;101895.09;5004615;28;19909;-55
2022/09/05 07:44:20;;;;;;;;;;;;;;;20.69;61.73;101895.09;5004043;28;19924;-57
2022/09/05 07:46:47;;;;;;;;;;;;;;;20.78;61.17;101906.47;5012256;28;19921;-57
2022/09/05 07:49:15;;;;;;;;;;;;;;;20.86;61.05;101906.25;5005068;28;20292;-57
2022/09/05 07:51:51;;;;;;;;;;;;;;;20.96;61.19;101907.47;5007311;28;19968;-56
2022/09/05 07:54:19;;;;;;;;;;;;;;;21.06;60.70;101911.56;5006644;28;19913;-54
2022/09/05 07:56:52;;;;;;;;;;;;;;;21.14;60.58;101914.06;5004203;28;19917;-58
2022/09/05 07:59:18;;;;;;;;;;;;;;;21.25;60.00;101919.63;5008898;28;19920;-58
2022/09/05 08:01:44;;;;;;;;;;;;;;;21.36;59.34;101920.00;5010827;28;20347;-57
2022/09/05 08:04:20;;;;;;;;;;;;;;;21.44;58.90;101920.59;5002166;28;19913;-55
2022/09/05 08:06:47;;;;;;;;;;;;;;;21.51;58.58;101910.56;5004707;28;19921;-58
2022/09/05 08:09:15;;;;;;;;;;;;;;;21.59;57.50;101923.00;5009302;28;19909;-57
2022/09/05 08:11:41;;;;;;;;;;;;;;;21.65;57.05;101916.72;5006475;28;19920;-58
2022/09/05 08:14:10;;;;;;;;;;;;;;;21.72;56.44;101906.69;4999688;28;19922;-57
2022/09/05 08:16:37;;;;;;;;;;;;;;;21.79;56.49;101904.78;5007433;28;20343;-56
2022/09/05 08:19:17;;;;;;;;;;;;;;;21.87;56.68;101899.09;5001628;28;20047;-57
2022/09/05 08:21:45;;;;;;;;;;;;;;;21.98;56.25;101902.97;5003284;28;19913;-57
2022/09/05 08:24:27;;;;;;;;;;;;;;;22.07;56.21;101903.56;5001951;28;20632;-56
2022/09/05 08:27:03;;;;;;;;;;;;;;;22.16;56.30;101902.22;5006076;28;19917;-57
2022/09/05 08:29:32;;;;;;;;;;;;;;;22.25;56.25;101900.88;5005952;28;19968;-57
2022/09/05 08:32:07;;;;;;;;;;;;;;;22.36;56.01;101908.28;5004284;28;19955;-56
2022/09/05 08:34:42;;;;;;;;;;;;;;;22.48;56.02;101911.09;5005782;28;19919;-56
2022/09/05 08:37:12;;;;;;;;;;;;;;;22.59;55.86;101917.66;5005455;28;19918;-57
2022/09/05 08:39:38;;;;;;;;;;;;;;;22.69;55.31;101917.97;5003754;28;19925;-58
2022/09/05 08:42:08;;;;;;;;;;;;;;;22.78;55.06;101914.72;5000822;28;19913;-58
2022/09/05 08:44:36;;;;;;;;;;;;;;;22.89;54.92;101917.78;5009716;28;19920;-58
2022/09/05 08:47:09;;;;;;;;;;;;;;;23.00;54.66;101917.00;5002714;28;19924;-55
2022/09/05 08:49:46;;;;;;;;;;;;;;;23.09;54.11;101908.34;5000752;28;19910;-57
2022/09/05 08:52:17;;;;;;;;;;;;;;;23.23;53.58;101905.47;4998906;28;20455;-58
2022/09/05 08:54:54;;;;;;;;;;;;;;;23.35;53.40;101901.75;5005637;28;19914;-58
2022/09/05 08:57:25;;;;;;;;;;;;;;;23.45;53.05;101899.34;5006438;28;19913;-57
2022/09/05 09:00:00;;;;;;;;;;;;;;;23.54;52.00;101905.25;5004305;28;19913;-57
2022/09/05 09:02:25;;;;;;;;;;;;;;;23.64;52.16;101893.88;5007762;28;19940;-58
2022/09/05 09:05:19;;;;;;;;;;;;;;;23.72;51.91;101896.28;5005448;28;19995;-58
2022/09/05 09:08:04;;;;;;;;;;;;;;;23.82;51.45;101884.84;4997201;28;19925;-57
2022/09/05 09:10:47;;;;;;;;;;;;;;;23.93;50.51;101887.56;5007922;28;19917;-57
2022/09/05 09:13:19;;;;;;;;;;;;;;;24.07;50.68;101888.19;5004933;28;19986;-57
2022/09/05 09:16:03;;;;;;;;;;;;;;;24.19;49.82;101886.28;5002151;28;19924;-57
2022/09/05 09:18:49;;;;;;;;;;;;;;;24.35;49.07;101882.91;5004672;28;19913;-55
2022/09/05 09:21:29;;;;;;;;;;;;;;;24.48;49.55;101887.25;4994273;28;19916;-58
2022/09/05 09:24:06;;;;;;;;;;;;;;;24.60;49.21;101887.25;5004854;28;19960;-58
2022/09/05 09:26:36;;;;;;;;;;;;;;;24.72;49.23;101885.34;5000552;28;20520;-58
2022/09/05 09:29:05;;;;;;;;;;;;;;;24.84;48.67;101882.59;5007850;28;19917;-58
2022/09/05 09:31:34;;;;;;;;;;;;;;;24.98;48.08;101881.25;5009341;28;19916;-57
2022/09/05 09:34:03;;;;;;;;;;;;;;;25.12;47.91;101874.50;5011428;28;19961;-57
2022/09/05 09:36:37;;;;;;;;;;;;;;;25.31;46.85;101880.56;5006534;28;20040;-58
2022/09/05 09:39:17;;;;;;;;;;;;;;;25.50;45.27;101875.75;5007945;28;19964;-57
2022/09/05 09:42:11;;;;;;;;;;;;;;;25.72;44.91;101873.16;5006773;28;19917;-57
2022/09/05 09:45:03;;;;;;;;;;;;;;;25.88;44.55;101866.91;4989797;28;19920;-58
2022/09/05 09:47:39;;;;;;;;;;;;;;;26.10;44.84;101872.44;5006487;28;19982;-59
2022/09/05 09:50:18;;;;;;;;;;;;;;;26.22;44.09;101873.16;5007695;28;19924;-58
2022/09/05 09:53:00;;;;;;;;;;;;;;;26.35;44.26;101861.13;5014190;28;19932;-58
2022/09/05 09:55:39;;;;;;;;;;;;;;;26.50;42.85;101864.88;5006875;28;19913;-58
2022/09/05 09:58:08;;;;;;;;;;;;;;;26.65;42.66;101863.44;5012019;28;19913;-58
2022/09/05 10:00:56;;;;;;;;;;;;;;;26.78;41.91;101869.34;5010601;28;19914;-56
2022/09/05 10:03:27;;;;;;;;;;;;;;;26.96;42.51;101868.19;5001677;28;19984;-58
2022/09/05 10:06:13;;;;;;;;;;;;;;;27.11;41.76;101862.09;5010602;28;19913;-58
2022/09/05 10:09:02;;;;;;;;;;;;;;;27.28;40.78;101860.13;4975742;28;19914;-57
2022/09/05 10:11:37;;;;;;;;;;;;;;;27.49;41.32;101860.31;5000965;28;20377;-58
2022/09/05 10:14:05;;;;;;;;;;;;;;;27.59;39.69;101863.97;5010512;28;19917;-58
2022/09/05 10:16:43;;;;;;;;;;;;;;;27.65;39.01;101853.94;5005823;28;19944;-59
2022/09/05 10:19:14;;;;;;;;;;;;;;;27.75;38.39;101848.56;5006922;28;19913;-57
2022/09/05 10:21:48;;;;;;;;;;;;;;;27.84;38.70;101841.53;5004590;28;20001;-58
2022/09/05 10:24:31;;;;;;;;;;;;;;;27.84;37.96;101848.91;5009261;28;19956;-58
2022/09/05 10:27:02;;;;;;;;;;;;;;;27.87;38.89;101842.94;5005233;28;19913;-57
2022/09/05 10:29:41;;;;;;;;;;;;;;;27.82;37.84;101830.06;5010093;28;19913;-55
2022/09/05 10:32:11;;;;;;;;;;;;;;;27.99;37.24;101841.63;5003470;28;20350;-57
2022/09/05 10:35:06;;;;;;;;;;;;;;;28.09;36.83;101829.97;5011440;28;20397;-59
2022/09/05 10:37:39;;;;;;;;;;;;;;;28.20;36.55;101828.13;4995755;28;19918;-56
2022/09/05 10:40:07;;;;;;;;;;;;;;;28.24;36.66;101824.63;5005749;28;20404;-58
2022/09/05 10:42:42;;;;;;;;;;;;;;;28.28;36.70;101822.19;5005330;28;19943;-59
2022/09/05 10:45:13;;;;;;;;;;;;;;;28.28;36.06;101825.72;5007852;28;19921;-58
2022/09/05 10:47:54;;;;;;;;;;;;;;;28.27;36.70;101821.34;5008447;28;19920;-58
2022/09/05 10:50:52;;;;;;;;;;;;;;;28.34;35.72;101826.59;5005567;28;19992;-58
2022/09/05 10:53:21;;;;;;;;;;;;;;;28.49;34.71;101826.66;4971206;28;19917;-57
2022/09/05 10:55:55;;;;;;;;;;;;;;;28.58;33.33;101826.97;5009183;28;19920;-58
2022/09/05 10:58:42;;;;;;;;;;;;;;;28.59;34.33;101820.41;5007105;28;20369;-58
2022/09/05 11:01:17;;;;;;;;;;;;;;;28.71;34.41;101825.66;5004817;28;19914;-58
2022/09/05 11:03:51;;;;;;;;;;;;;;;28.79;34.34;101815.03;4999923;28;19989;-58
2022/09/05 11:06:18;;;;;;;;;;;;;;;28.85;34.70;101813.16;5006377;28;19924;-57
2022/09/05 11:09:00;;;;;;;;;;;;;;;28.82;34.83;101810.94;5005153;28;19928;-57
2022/09/05 11:11:26;;;;;;;;;;;;;;;28.80;34.36;101805.72;5006777;28;19967;-58
2022/09/05 11:13:56;;;;;;;;;;;;;;;28.84;34.49;101806.00;5008702;28;19913;-58
2022/09/05 11:16:27;;;;;;;;;;;;;;;28.92;34.52;101802.81;5010154;28;19909;-59
2022/09/05 11:19:03;;;;;;;;;;;;;;;29.01;35.22;101800.34;5005206;28;20270;-58
2022/09/05 11:21:48;;;;;;;;;;;;;;;29.00;34.79;101805.00;5003342;28;20460;-58
2022/09/05 11:24:32;;;;;;;;;;;;;;;29.06;35.06;101797.63;4998389;28;20001;-57
2022/09/05 11:27:00;;;;;;;;;;;;;;;29.14;33.97;101797.91;5009070;28;20490;-58
2022/09/05 11:29:31;;;;;;;;;;;;;;;29.25;33.62;101791.38;5007044;28;19917;-58
2022/09/05 11:32:06;;;;;;;;;;;;;;;29.28;33.29;101796.28;5006715;28;19913;-59
2022/09/05 11:34:44;;;;;;;;;;;;;;;29.32;33.21;101801.22;5009125;28;19917;-58
2022/09/05 11:37:25;;;;;;;;;;;;;;;29.40;33.01;101804.22;5009583;28;19952;-58
2022/09/05 11:40:13;;;;;;;;;;;;;;;29.43;33.30;101791.91;5008046;28;19988;-58
2022/09/05 11:42:44;;;;;;;;;;;;;;;29.47;32.53;101790.28;5009741;28;19916;-58
2022/09/05 11:45:18;;;;;;;;;;;;;;;29.49;32.92;101791.69;5007618;28;19940;-58
2022/09/05 11:48:05;;;;;;;;;;;;;;;29.43;31.63;101800.94;5003907;28;20373;-56
2022/09/05 11:50:50;;;;;;;;;;;;;;;29.39;30.52;101794.38;5011321;28;19913;-58
2022/09/05 11:53:34;;;;;;;;;;;;;;;29.27;30.92;101796.56;5008430;28;22228;-58
2022/09/05 11:56:18;;;;;;;;;;;;;;;29.33;30.83;101795.47;5004626;28;20016;-58
2022/09/05 11:58:55;;;;;;;;;;;;;;;29.40;31.48;101796.00;5009569;28;19909;-59
2022/09/05 12:01:30;;;;;;;;;;;;;;;29.48;31.06;101791.91;5005842;28;20004;-59
2022/09/05 12:04:20;;;;;;;;;;;;;;;29.47;30.36;101788.38;5006109;28;19913;-58
2022/09/05 12:06:45;;;;;;;;;;;;;;;29.53;30.42;101791.94;5003427;28;20608;-58
2022/09/05 12:09:11;;;;;;;;;;;;;;;29.55;30.96;101779.63;5000791;28;19924;-59
2022/09/05 12:11:39;;;;;;;;;;;;;;;29.60;31.19;101779.63;5001124;28;19920;-59
2022/09/05 12:14:10;;;;;;;;;;;;;;;29.68;31.22;101788.38;5003891;28;19921;-58
2022/09/05 12:16:57;;;;;;;;;;;;;;;29.69;31.24;101781.78;5002178;28;19925;-58
2022/09/05 12:19:22;;;;;;;;;;;;;;;29.68;31.11;101780.97;5000931;28;19926;-59
2022/09/05 12:22:01;;;;;;;;;;;;;;;29.76;31.97;101774.09;5002593;28;19917;-58
2022/09/05 12:24:44;;;;;;;;;;;;;;;29.81;31.83;101774.94;5007049;28;19926;-59
2022/09/05 12:27:12;;;;;;;;;;;;;;;29.81;30.63;101766.72;4997797;28;20348;-60
2022/09/05 12:29:39;;;;;;;;;;;;;;;29.86;31.07;101766.72;5009194;28;19932;-59
2022/09/05 12:32:09;;;;;;;;;;;;;;;29.92;31.45;101760.13;5002594;28;19997;-59
2022/09/05 12:34:55;;;;;;;;;;;;;;;29.94;31.20;101751.63;5003051;28;19913;-60
2022/09/05 12:37:21;;;;;;;;;;;;;;;29.99;31.21;101739.81;5007114;28;20407;-59
2022/09/05 12:39:51;;;;;;;;;;;;;;;29.98;31.51;101749.97;5004403;28;19968;-59
2022/09/05 12:42:27;;;;;;;;;;;;;;;29.97;31.06;101755.72;5004502;28;19921;-59
2022/09/05 12:44:53;;;;;;;;;;;;;;;30.00;30.66;101757.91;5007384;28;20419;-59
2022/09/05 12:47:20;;;;;;;;;;;;;;;30.12;31.44;101759.28;5006443;28;19964;-58
2022/09/05 12:49:55;;;;;;;;;;;;;;;30.17;31.30;101752.94;5004390;28;19914;-58
2022/09/05 12:52:47;;;;;;;;;;;;;;;30.23;29.72;101751.81;5004887;28;19916;-60
2022/09/05 12:55:19;;;;;;;;;;;;;;;30.41;29.48;101753.13;4999443;28;20520;-59
2022/09/05 12:57:47;;;;;;;;;;;;;;;30.63;30.08;101752.75;5010006;28;20288;-59
2022/09/05 13:00:12;;;;;;;;;;;;;;;30.68;30.34;101753.56;5007106;28;19916;-59
2022/09/05 13:02:42;;;;;;;;;;;;;;;30.66;30.40;101754.94;5007499;28;20296;-59
2022/09/05 13:05:15;;;;;;;;;;;;;;;30.70;30.68;101753.28;5012015;28;19917;-58
2022/09/05 13:07:49;;;;;;;;;;;;;;;30.74;30.53;101746.13;5016812;28;20444;-59
2022/09/05 13:10:22;;;;;;;;;;;;;;;30.80;30.05;101745.81;5008113;28;19929;-60
2022/09/05 13:12:56;;;;;;;;;;;;;;;30.90;29.92;101744.91;5012127;28;19944;-59